sensor_id;sensor_type;location;lat;lon;timestamp;P1;durP1;ratioP1;P2;durP2;ratioP2
10248;SDS011;5169;50.560;9.714;2023-04-25T00:01:28;71.63;;;40.67;;
10248;SDS011;5169;50.560;9.714;2023-04-25T00:03:54;73.67;;;40.40;;
10248;SDS011;5169;50.560;9.714;2023-04-25T00:06:22;69.07;;;39.33;;
10248;SDS011;5169;50.560;9.714;2023-04-25T00:08:54;69.53;;;39.13;;
10248;SDS011;5169;50.560;9.714;2023-04-25T00:11:20;59.30;;;36.47;;
10248;SDS011;5169;50.560;9.714;2023-04-25T00:13:46;64.30;;;38.33;;
10248;SDS011;5169;50.560;9.714;2023-04-25T00:16:16;65.13;;;38.50;;
10248;SDS011;5169;50.560;9.714;2023-04-25T00:18:42;62.43;;;37.90;;
10248;SDS011;5169;50.560;9.714;2023-04-25T00:21:08;61.20;;;37.63;;
10248;SDS011;5169;50.560;9.714;2023-04-25T00:23:36;57.23;;;36.10;;
10248;SDS011;5169;50.560;9.714;2023-04-25T00:26:04;65.30;;;39.87;;
10248;SDS011;5169;50.560;9.714;2023-04-25T00:28:30;66.40;;;38.97;;
10248;SDS011;5169;50.560;9.714;2023-04-25T00:30:55;63.10;;;39.10;;
10248;SDS011;5169;50.560;9.714;2023-04-25T00:33:21;61.53;;;38.07;;
10248;SDS011;5169;50.560;9.714;2023-04-25T00:35:47;67.63;;;39.40;;
10248;SDS011;5169;50.560;9.714;2023-04-25T00:38:12;65.73;;;39.73;;
10248;SDS011;5169;50.560;9.714;2023-04-25T00:40:41;73.77;;;39.93;;
10248;SDS011;5169;50.560;9.714;2023-04-25T00:43:08;68.87;;;40.20;;
10248;SDS011;5169;50.560;9.714;2023-04-25T00:45:37;67.80;;;38.63;;
10248;SDS011;5169;50.560;9.714;2023-04-25T00:48:07;66.77;;;37.10;;
10248;SDS011;5169;50.560;9.714;2023-04-25T00:50:33;65.90;;;38.30;;
10248;SDS011;5169;50.560;9.714;2023-04-25T00:53:08;66.67;;;37.57;;
10248;SDS011;5169;50.560;9.714;2023-04-25T00:55:34;69.97;;;38.30;;
10248;SDS011;5169;50.560;9.714;2023-04-25T00:58:01;64.50;;;38.70;;
10248;SDS011;5169;50.560;9.714;2023-04-25T01:00:29;70.57;;;39.00;;
10248;SDS011;5169;50.560;9.714;2023-04-25T01:02:55;71.30;;;38.30;;
10248;SDS011;5169;50.560;9.714;2023-04-25T01:05:21;75.40;;;40.17;;
10248;SDS011;5169;50.560;9.714;2023-04-25T01:07:47;70.33;;;37.90;;
10248;SDS011;5169;50.560;9.714;2023-04-25T01:10:15;66.53;;;37.40;;
10248;SDS011;5169;50.560;9.714;2023-04-25T01:12:42;67.27;;;38.70;;
10248;SDS011;5169;50.560;9.714;2023-04-25T01:15:10;65.50;;;36.77;;
10248;SDS011;5169;50.560;9.714;2023-04-25T01:17:35;65.77;;;36.37;;
10248;SDS011;5169;50.560;9.714;2023-04-25T01:20:06;66.53;;;36.47;;
10248;SDS011;5169;50.560;9.714;2023-04-25T01:22:34;64.47;;;35.80;;
10248;SDS011;5169;50.560;9.714;2023-04-25T01:25:00;64.53;;;35.70;;
10248;SDS011;5169;50.560;9.714;2023-04-25T01:27:26;68.00;;;36.60;;
10248;SDS011;5169;50.560;9.714;2023-04-25T01:30:00;63.17;;;35.77;;
10248;SDS011;5169;50.560;9.714;2023-04-25T01:32:25;67.13;;;36.37;;
10248;SDS011;5169;50.560;9.714;2023-04-25T01:34:52;67.37;;;37.23;;
10248;SDS011;5169;50.560;9.714;2023-04-25T01:37:22;66.33;;;36.93;;
10248;SDS011;5169;50.560;9.714;2023-04-25T01:39:48;64.27;;;36.33;;
10248;SDS011;5169;50.560;9.714;2023-04-25T01:42:15;65.33;;;37.87;;
10248;SDS011;5169;50.560;9.714;2023-04-25T01:44:46;67.27;;;37.47;;
10248;SDS011;5169;50.560;9.714;2023-04-25T01:47:12;63.43;;;36.53;;
10248;SDS011;5169;50.560;9.714;2023-04-25T01:49:43;61.50;;;36.27;;
10248;SDS011;5169;50.560;9.714;2023-04-25T01:52:08;64.67;;;37.00;;
10248;SDS011;5169;50.560;9.714;2023-04-25T01:54:34;64.80;;;36.47;;
10248;SDS011;5169;50.560;9.714;2023-04-25T01:56:59;64.90;;;36.83;;
10248;SDS011;5169;50.560;9.714;2023-04-25T01:59:26;63.63;;;36.83;;
10248;SDS011;5169;50.560;9.714;2023-04-25T02:01:58;57.37;;;35.07;;
10248;SDS011;5169;50.560;9.714;2023-04-25T02:04:26;66.60;;;37.50;;
10248;SDS011;5169;50.560;9.714;2023-04-25T02:06:58;69.80;;;38.30;;
10248;SDS011;5169;50.560;9.714;2023-04-25T02:09:24;66.83;;;38.73;;
10248;SDS011;5169;50.560;9.714;2023-04-25T02:11:57;61.60;;;37.13;;
10248;SDS011;5169;50.560;9.714;2023-04-25T02:14:26;63.67;;;37.20;;
10248;SDS011;5169;50.560;9.714;2023-04-25T02:16:57;60.97;;;36.67;;
10248;SDS011;5169;50.560;9.714;2023-04-25T02:19:24;68.60;;;39.50;;
10248;SDS011;5169;50.560;9.714;2023-04-25T02:21:55;72.87;;;39.87;;
10248;SDS011;5169;50.560;9.714;2023-04-25T02:24:23;69.63;;;39.80;;
10248;SDS011;5169;50.560;9.714;2023-04-25T02:26:51;64.57;;;38.47;;
10248;SDS011;5169;50.560;9.714;2023-04-25T02:29:22;64.37;;;37.50;;
10248;SDS011;5169;50.560;9.714;2023-04-25T02:31:48;58.53;;;35.47;;
10248;SDS011;5169;50.560;9.714;2023-04-25T02:34:19;66.13;;;37.67;;
10248;SDS011;5169;50.560;9.714;2023-04-25T02:36:45;61.07;;;35.87;;
10248;SDS011;5169;50.560;9.714;2023-04-25T02:39:10;60.67;;;36.93;;
10248;SDS011;5169;50.560;9.714;2023-04-25T02:41:36;63.83;;;37.07;;
10248;SDS011;5169;50.560;9.714;2023-04-25T02:44:10;36.60;;;29.63;;
10248;SDS011;5169;50.560;9.714;2023-04-25T02:46:36;43.17;;;31.80;;
10248;SDS011;5169;50.560;9.714;2023-04-25T02:49:02;42.87;;;30.83;;
10248;SDS011;5169;50.560;9.714;2023-04-25T02:51:32;42.47;;;31.20;;
10248;SDS011;5169;50.560;9.714;2023-04-25T02:53:59;42.13;;;30.13;;
10248;SDS011;5169;50.560;9.714;2023-04-25T02:56:27;56.90;;;33.90;;
10248;SDS011;5169;50.560;9.714;2023-04-25T02:59:04;56.27;;;33.20;;
10248;SDS011;5169;50.560;9.714;2023-04-25T03:01:30;56.37;;;33.93;;
10248;SDS011;5169;50.560;9.714;2023-04-25T03:03:59;51.10;;;31.60;;
10248;SDS011;5169;50.560;9.714;2023-04-25T03:06:24;52.23;;;30.70;;
10248;SDS011;5169;50.560;9.714;2023-04-25T03:08:52;59.77;;;33.03;;
10248;SDS011;5169;50.560;9.714;2023-04-25T03:11:18;57.00;;;31.83;;
10248;SDS011;5169;50.560;9.714;2023-04-25T03:13:47;59.00;;;31.77;;
10248;SDS011;5169;50.560;9.714;2023-04-25T03:16:12;56.17;;;30.70;;
10248;SDS011;5169;50.560;9.714;2023-04-25T03:18:38;55.47;;;31.60;;
10248;SDS011;5169;50.560;9.714;2023-04-25T03:21:03;54.87;;;30.47;;
10248;SDS011;5169;50.560;9.714;2023-04-25T03:23:29;54.40;;;30.07;;
10248;SDS011;5169;50.560;9.714;2023-04-25T03:25:55;55.57;;;30.27;;
10248;SDS011;5169;50.560;9.714;2023-04-25T03:28:29;56.37;;;30.30;;
10248;SDS011;5169;50.560;9.714;2023-04-25T03:30:54;53.23;;;29.47;;
10248;SDS011;5169;50.560;9.714;2023-04-25T03:33:20;53.90;;;28.77;;
10248;SDS011;5169;50.560;9.714;2023-04-25T03:35:47;53.43;;;30.33;;
10248;SDS011;5169;50.560;9.714;2023-04-25T03:38:15;53.60;;;29.67;;
10248;SDS011;5169;50.560;9.714;2023-04-25T03:40:48;56.47;;;29.80;;
10248;SDS011;5169;50.560;9.714;2023-04-25T03:43:16;54.43;;;29.60;;
10248;SDS011;5169;50.560;9.714;2023-04-25T03:45:42;78.80;;;34.00;;
10248;SDS011;5169;50.560;9.714;2023-04-25T03:48:14;47.33;;;27.83;;
10248;SDS011;5169;50.560;9.714;2023-04-25T03:50:42;52.40;;;28.83;;
10248;SDS011;5169;50.560;9.714;2023-04-25T03:53:11;52.10;;;29.00;;
10248;SDS011;5169;50.560;9.714;2023-04-25T03:55:37;50.87;;;28.83;;
10248;SDS011;5169;50.560;9.714;2023-04-25T03:58:02;47.07;;;27.83;;
10248;SDS011;5169;50.560;9.714;2023-04-25T04:00:28;50.87;;;29.30;;
10248;SDS011;5169;50.560;9.714;2023-04-25T04:02:53;48.37;;;28.70;;
10248;SDS011;5169;50.560;9.714;2023-04-25T04:05:19;51.17;;;28.70;;
10248;SDS011;5169;50.560;9.714;2023-04-25T04:07:48;52.97;;;29.13;;
10248;SDS011;5169;50.560;9.714;2023-04-25T04:10:13;48.47;;;27.83;;
10248;SDS011;5169;50.560;9.714;2023-04-25T04:12:41;55.20;;;29.27;;
10248;SDS011;5169;50.560;9.714;2023-04-25T04:15:07;67.40;;;32.47;;
10248;SDS011;5169;50.560;9.714;2023-04-25T04:17:34;74.17;;;32.73;;
10248;SDS011;5169;50.560;9.714;2023-04-25T04:20:07;65.70;;;32.23;;
10248;SDS011;5169;50.560;9.714;2023-04-25T04:22:36;72.40;;;33.67;;
10248;SDS011;5169;50.560;9.714;2023-04-25T04:25:09;70.40;;;32.70;;
10248;SDS011;5169;50.560;9.714;2023-04-25T04:27:39;73.97;;;33.10;;
10248;SDS011;5169;50.560;9.714;2023-04-25T04:30:06;77.23;;;33.67;;
10248;SDS011;5169;50.560;9.714;2023-04-25T04:32:33;71.07;;;32.83;;
10248;SDS011;5169;50.560;9.714;2023-04-25T04:35:04;73.17;;;33.33;;
10248;SDS011;5169;50.560;9.714;2023-04-25T04:37:34;75.97;;;33.30;;
10248;SDS011;5169;50.560;9.714;2023-04-25T04:39:59;70.53;;;32.73;;
10248;SDS011;5169;50.560;9.714;2023-04-25T04:42:34;72.20;;;32.90;;
10248;SDS011;5169;50.560;9.714;2023-04-25T04:45:04;106.17;;;38.53;;
10248;SDS011;5169;50.560;9.714;2023-04-25T04:47:30;97.10;;;38.23;;
10248;SDS011;5169;50.560;9.714;2023-04-25T04:49:57;95.90;;;38.53;;
10248;SDS011;5169;50.560;9.714;2023-04-25T04:52:27;94.80;;;37.80;;
10248;SDS011;5169;50.560;9.714;2023-04-25T04:54:55;92.00;;;37.27;;
10248;SDS011;5169;50.560;9.714;2023-04-25T04:57:23;96.30;;;37.13;;
10248;SDS011;5169;50.560;9.714;2023-04-25T04:59:55;91.47;;;37.33;;
10248;SDS011;5169;50.560;9.714;2023-04-25T05:02:21;93.30;;;35.60;;
10248;SDS011;5169;50.560;9.714;2023-04-25T05:04:52;91.60;;;36.87;;
10248;SDS011;5169;50.560;9.714;2023-04-25T05:07:18;87.80;;;36.20;;
10248;SDS011;5169;50.560;9.714;2023-04-25T05:09:44;87.87;;;36.20;;
10248;SDS011;5169;50.560;9.714;2023-04-25T05:12:17;91.97;;;36.47;;
10248;SDS011;5169;50.560;9.714;2023-04-25T05:14:47;90.73;;;37.23;;
10248;SDS011;5169;50.560;9.714;2023-04-25T05:17:16;88.97;;;36.80;;
10248;SDS011;5169;50.560;9.714;2023-04-25T05:19:41;88.73;;;36.63;;
10248;SDS011;5169;50.560;9.714;2023-04-25T05:22:07;90.57;;;36.40;;
10248;SDS011;5169;50.560;9.714;2023-04-25T05:24:35;90.60;;;36.77;;
10248;SDS011;5169;50.560;9.714;2023-04-25T05:27:08;89.80;;;36.97;;
10248;SDS011;5169;50.560;9.714;2023-04-25T05:29:46;87.60;;;37.70;;
10248;SDS011;5169;50.560;9.714;2023-04-25T05:32:11;87.87;;;37.10;;
10248;SDS011;5169;50.560;9.714;2023-04-25T05:34:43;86.47;;;36.70;;
10248;SDS011;5169;50.560;9.714;2023-04-25T05:37:09;86.93;;;36.80;;
10248;SDS011;5169;50.560;9.714;2023-04-25T05:39:34;89.77;;;37.03;;
10248;SDS011;5169;50.560;9.714;2023-04-25T05:42:08;92.67;;;37.30;;
10248;SDS011;5169;50.560;9.714;2023-04-25T05:44:33;89.70;;;37.47;;
10248;SDS011;5169;50.560;9.714;2023-04-25T05:46:59;86.50;;;37.50;;
10248;SDS011;5169;50.560;9.714;2023-04-25T05:49:32;87.30;;;38.17;;
10248;SDS011;5169;50.560;9.714;2023-04-25T05:51:57;91.43;;;39.33;;
10248;SDS011;5169;50.560;9.714;2023-04-25T05:54:23;87.40;;;38.10;;
10248;SDS011;5169;50.560;9.714;2023-04-25T05:56:52;87.73;;;38.90;;
10248;SDS011;5169;50.560;9.714;2023-04-25T05:59:20;81.93;;;38.10;;
10248;SDS011;5169;50.560;9.714;2023-04-25T06:01:45;85.93;;;39.33;;
10248;SDS011;5169;50.560;9.714;2023-04-25T06:04:12;83.20;;;38.03;;
10248;SDS011;5169;50.560;9.714;2023-04-25T06:06:43;94.33;;;38.73;;
10248;SDS011;5169;50.560;9.714;2023-04-25T06:09:11;86.20;;;37.83;;
10248;SDS011;5169;50.560;9.714;2023-04-25T06:11:40;90.37;;;38.00;;
10248;SDS011;5169;50.560;9.714;2023-04-25T06:14:05;88.17;;;38.00;;
10248;SDS011;5169;50.560;9.714;2023-04-25T06:16:32;88.33;;;38.30;;
10248;SDS011;5169;50.560;9.714;2023-04-25T06:18:57;87.40;;;36.97;;
10248;SDS011;5169;50.560;9.714;2023-04-25T06:21:23;88.20;;;37.70;;
10248;SDS011;5169;50.560;9.714;2023-04-25T06:23:55;85.47;;;37.90;;
10248;SDS011;5169;50.560;9.714;2023-04-25T06:26:22;79.23;;;35.83;;
10248;SDS011;5169;50.560;9.714;2023-04-25T06:28:51;87.90;;;36.43;;
10248;SDS011;5169;50.560;9.714;2023-04-25T06:31:17;83.17;;;36.00;;
10248;SDS011;5169;50.560;9.714;2023-04-25T06:33:47;84.33;;;37.70;;
10248;SDS011;5169;50.560;9.714;2023-04-25T06:36:16;88.53;;;37.83;;
10248;SDS011;5169;50.560;9.714;2023-04-25T06:38:53;83.73;;;37.10;;
10248;SDS011;5169;50.560;9.714;2023-04-25T06:41:19;88.27;;;37.80;;
10248;SDS011;5169;50.560;9.714;2023-04-25T06:43:45;80.00;;;36.00;;
10248;SDS011;5169;50.560;9.714;2023-04-25T06:46:11;81.10;;;36.57;;
10248;SDS011;5169;50.560;9.714;2023-04-25T06:48:39;88.03;;;36.80;;
10248;SDS011;5169;50.560;9.714;2023-04-25T06:51:05;82.37;;;36.30;;
10248;SDS011;5169;50.560;9.714;2023-04-25T06:53:30;82.60;;;36.90;;
10248;SDS011;5169;50.560;9.714;2023-04-25T06:55:56;82.50;;;37.13;;
10248;SDS011;5169;50.560;9.714;2023-04-25T06:58:21;80.50;;;36.37;;
10248;SDS011;5169;50.560;9.714;2023-04-25T07:00:47;83.50;;;37.90;;
10248;SDS011;5169;50.560;9.714;2023-04-25T07:03:20;79.23;;;38.07;;
10248;SDS011;5169;50.560;9.714;2023-04-25T07:05:46;85.00;;;38.73;;
10248;SDS011;5169;50.560;9.714;2023-04-25T07:08:19;81.77;;;37.43;;
10248;SDS011;5169;50.560;9.714;2023-04-25T07:10:46;81.60;;;37.67;;
10248;SDS011;5169;50.560;9.714;2023-04-25T07:13:19;86.10;;;37.77;;
10248;SDS011;5169;50.560;9.714;2023-04-25T07:15:44;84.53;;;38.97;;
10248;SDS011;5169;50.560;9.714;2023-04-25T07:18:10;83.00;;;38.23;;
10248;SDS011;5169;50.560;9.714;2023-04-25T07:20:36;84.50;;;38.30;;
10248;SDS011;5169;50.560;9.714;2023-04-25T07:23:04;80.17;;;36.77;;
10248;SDS011;5169;50.560;9.714;2023-04-25T07:25:30;83.20;;;38.00;;
10248;SDS011;5169;50.560;9.714;2023-04-25T07:27:59;80.83;;;37.70;;
10248;SDS011;5169;50.560;9.714;2023-04-25T07:30:24;85.87;;;38.03;;
10248;SDS011;5169;50.560;9.714;2023-04-25T07:33:05;82.20;;;36.77;;
10248;SDS011;5169;50.560;9.714;2023-04-25T07:35:33;77.90;;;36.27;;
10248;SDS011;5169;50.560;9.714;2023-04-25T07:37:59;81.07;;;37.00;;
10248;SDS011;5169;50.560;9.714;2023-04-25T07:40:35;80.90;;;37.67;;
10248;SDS011;5169;50.560;9.714;2023-04-25T07:43:08;74.00;;;36.00;;
10248;SDS011;5169;50.560;9.714;2023-04-25T07:45:33;76.87;;;36.77;;
10248;SDS011;5169;50.560;9.714;2023-04-25T07:47:59;79.27;;;37.47;;
10248;SDS011;5169;50.560;9.714;2023-04-25T07:50:34;79.57;;;37.93;;
10248;SDS011;5169;50.560;9.714;2023-04-25T07:53:00;73.50;;;36.03;;
10248;SDS011;5169;50.560;9.714;2023-04-25T07:55:25;80.20;;;37.83;;
10248;SDS011;5169;50.560;9.714;2023-04-25T07:57:57;76.40;;;37.00;;
10248;SDS011;5169;50.560;9.714;2023-04-25T08:00:22;71.80;;;36.73;;
10248;SDS011;5169;50.560;9.714;2023-04-25T08:02:48;73.13;;;36.83;;
10248;SDS011;5169;50.560;9.714;2023-04-25T08:05:18;73.73;;;36.70;;
10248;SDS011;5169;50.560;9.714;2023-04-25T08:07:44;81.23;;;37.60;;
10248;SDS011;5169;50.560;9.714;2023-04-25T08:10:10;73.00;;;35.73;;
10248;SDS011;5169;50.560;9.714;2023-04-25T08:12:35;77.97;;;37.87;;
10248;SDS011;5169;50.560;9.714;2023-04-25T08:15:09;70.93;;;36.17;;
10248;SDS011;5169;50.560;9.714;2023-04-25T08:17:34;81.90;;;38.13;;
10248;SDS011;5169;50.560;9.714;2023-04-25T08:20:00;77.20;;;37.97;;
10248;SDS011;5169;50.560;9.714;2023-04-25T08:22:28;73.80;;;37.97;;
10248;SDS011;5169;50.560;9.714;2023-04-25T08:24:57;69.30;;;36.70;;
10248;SDS011;5169;50.560;9.714;2023-04-25T08:27:22;74.73;;;38.93;;
10248;SDS011;5169;50.560;9.714;2023-04-25T08:29:50;76.20;;;39.30;;
10248;SDS011;5169;50.560;9.714;2023-04-25T08:32:22;63.93;;;35.93;;
10248;SDS011;5169;50.560;9.714;2023-04-25T08:34:48;65.60;;;37.23;;
10248;SDS011;5169;50.560;9.714;2023-04-25T08:37:21;64.73;;;37.33;;
10248;SDS011;5169;50.560;9.714;2023-04-25T08:39:47;68.87;;;38.63;;
10248;SDS011;5169;50.560;9.714;2023-04-25T08:42:24;53.53;;;33.47;;
10248;SDS011;5169;50.560;9.714;2023-04-25T08:44:57;59.93;;;34.90;;
10248;SDS011;5169;50.560;9.714;2023-04-25T08:47:25;43.00;;;31.17;;
10248;SDS011;5169;50.560;9.714;2023-04-25T08:49:57;39.43;;;29.73;;
10248;SDS011;5169;50.560;9.714;2023-04-25T08:52:24;39.27;;;29.27;;
10248;SDS011;5169;50.560;9.714;2023-04-25T08:55:00;38.60;;;28.57;;
10248;SDS011;5169;50.560;9.714;2023-04-25T08:57:31;37.30;;;29.10;;
10248;SDS011;5169;50.560;9.714;2023-04-25T08:59:58;38.17;;;28.83;;
10248;SDS011;5169;50.560;9.714;2023-04-25T09:02:25;42.70;;;31.33;;
10248;SDS011;5169;50.560;9.714;2023-04-25T09:04:55;40.33;;;29.73;;
10248;SDS011;5169;50.560;9.714;2023-04-25T09:07:23;43.70;;;31.60;;
10248;SDS011;5169;50.560;9.714;2023-04-25T09:09:50;64.57;;;36.57;;
10248;SDS011;5169;50.560;9.714;2023-04-25T09:12:19;64.57;;;36.30;;
10248;SDS011;5169;50.560;9.714;2023-04-25T09:15:01;62.63;;;35.27;;
10248;SDS011;5169;50.560;9.714;2023-04-25T09:17:38;67.73;;;35.40;;
10248;SDS011;5169;50.560;9.714;2023-04-25T09:20:13;65.17;;;34.70;;
10248;SDS011;5169;50.560;9.714;2023-04-25T09:22:43;62.50;;;34.40;;
10248;SDS011;5169;50.560;9.714;2023-04-25T09:25:13;63.13;;;34.67;;
10248;SDS011;5169;50.560;9.714;2023-04-25T09:27:49;47.00;;;30.73;;
10248;SDS011;5169;50.560;9.714;2023-04-25T09:30:32;45.20;;;29.23;;
10248;SDS011;5169;50.560;9.714;2023-04-25T09:33:11;60.80;;;33.33;;
10248;SDS011;5169;50.560;9.714;2023-04-25T09:35:45;69.33;;;35.60;;
10248;SDS011;5169;50.560;9.714;2023-04-25T09:38:19;71.07;;;35.47;;
10248;SDS011;5169;50.560;9.714;2023-04-25T09:40:47;64.67;;;33.93;;
10248;SDS011;5169;50.560;9.714;2023-04-25T09:43:20;68.67;;;35.20;;
10248;SDS011;5169;50.560;9.714;2023-04-25T09:45:49;66.57;;;36.43;;
10248;SDS011;5169;50.560;9.714;2023-04-25T09:48:20;62.03;;;35.27;;
10248;SDS011;5169;50.560;9.714;2023-04-25T09:53:55;52.37;;;37.13;;
10248;SDS011;5169;50.560;9.714;2023-04-25T09:56:21;50.83;;;38.17;;
10248;SDS011;5169;50.560;9.714;2023-04-25T09:58:51;50.03;;;37.03;;
10248;SDS011;5169;50.560;9.714;2023-04-25T10:01:21;57.17;;;41.87;;
10248;SDS011;5169;50.560;9.714;2023-04-25T10:03:51;55.47;;;41.13;;
10248;SDS011;5169;50.560;9.714;2023-04-25T10:06:24;60.47;;;41.83;;
10248;SDS011;5169;50.560;9.714;2023-04-25T10:08:56;53.67;;;37.90;;
10248;SDS011;5169;50.560;9.714;2023-04-25T10:11:23;52.43;;;35.63;;
10248;SDS011;5169;50.560;9.714;2023-04-25T10:13:51;62.43;;;37.80;;
10248;SDS011;5169;50.560;9.714;2023-04-25T10:16:23;56.07;;;35.40;;
10248;SDS011;5169;50.560;9.714;2023-04-25T10:18:50;52.93;;;34.70;;
10248;SDS011;5169;50.560;9.714;2023-04-25T10:21:21;58.37;;;34.67;;
10248;SDS011;5169;50.560;9.714;2023-04-25T10:23:47;55.73;;;34.73;;
10248;SDS011;5169;50.560;9.714;2023-04-25T10:26:21;56.10;;;34.37;;
10248;SDS011;5169;50.560;9.714;2023-04-25T10:29:01;58.87;;;36.10;;
10248;SDS011;5169;50.560;9.714;2023-04-25T10:31:37;54.70;;;34.97;;
10248;SDS011;5169;50.560;9.714;2023-04-25T10:34:13;53.00;;;34.43;;
10248;SDS011;5169;50.560;9.714;2023-04-25T10:36:51;46.27;;;32.03;;
10248;SDS011;5169;50.560;9.714;2023-04-25T10:39:28;52.67;;;34.00;;
10248;SDS011;5169;50.560;9.714;2023-04-25T10:41:59;51.80;;;34.17;;
10248;SDS011;5169;50.560;9.714;2023-04-25T10:44:34;56.27;;;35.13;;
10248;SDS011;5169;50.560;9.714;2023-04-25T10:47:01;57.47;;;36.77;;
10248;SDS011;5169;50.560;9.714;2023-04-25T10:49:34;54.47;;;35.93;;
10248;SDS011;5169;50.560;9.714;2023-04-25T10:52:14;60.20;;;36.77;;
10248;SDS011;5169;50.560;9.714;2023-04-25T10:54:51;61.57;;;36.00;;
10248;SDS011;5169;50.560;9.714;2023-04-25T11:02:36;64.00;;;35.33;;
10248;SDS011;5169;50.560;9.714;2023-04-25T11:05:33;61.40;;;34.90;;
10248;SDS011;5169;50.560;9.714;2023-04-25T11:08:03;54.60;;;31.27;;
10248;SDS011;5169;50.560;9.714;2023-04-25T11:10:36;62.57;;;34.50;;
10248;SDS011;5169;50.560;9.714;2023-04-25T11:13:05;58.57;;;33.73;;
10248;SDS011;5169;50.560;9.714;2023-04-25T11:15:34;63.27;;;34.77;;
10248;SDS011;5169;50.560;9.714;2023-04-25T11:18:01;60.43;;;33.70;;
10248;SDS011;5169;50.560;9.714;2023-04-25T11:20:32;58.13;;;33.93;;
10248;SDS011;5169;50.560;9.714;2023-04-25T11:22:58;54.00;;;32.60;;
10248;SDS011;5169;50.560;9.714;2023-04-25T11:25:27;62.70;;;35.53;;
10248;SDS011;5169;50.560;9.714;2023-04-25T11:27:57;61.57;;;35.03;;
10248;SDS011;5169;50.560;9.714;2023-04-25T11:30:26;60.93;;;33.90;;
10248;SDS011;5169;50.560;9.714;2023-04-25T11:32:59;59.70;;;33.93;;
10248;SDS011;5169;50.560;9.714;2023-04-25T11:35:25;58.03;;;34.67;;
10248;SDS011;5169;50.560;9.714;2023-04-25T11:38:01;59.03;;;35.83;;
10248;SDS011;5169;50.560;9.714;2023-04-25T11:40:27;57.33;;;35.80;;
10248;SDS011;5169;50.560;9.714;2023-04-25T11:43:00;64.60;;;39.37;;
10248;SDS011;5169;50.560;9.714;2023-04-25T11:45:36;53.97;;;35.83;;
10248;SDS011;5169;50.560;9.714;2023-04-25T11:48:12;52.63;;;35.13;;
10248;SDS011;5169;50.560;9.714;2023-04-25T11:50:38;53.83;;;34.50;;
10248;SDS011;5169;50.560;9.714;2023-04-25T11:53:09;44.53;;;32.23;;
10248;SDS011;5169;50.560;9.714;2023-04-25T11:55:37;50.67;;;34.27;;
10248;SDS011;5169;50.560;9.714;2023-04-25T11:58:04;51.90;;;34.33;;
10248;SDS011;5169;50.560;9.714;2023-04-25T12:00:38;44.83;;;31.37;;
10248;SDS011;5169;50.560;9.714;2023-04-25T12:03:15;51.97;;;33.80;;
10248;SDS011;5169;50.560;9.714;2023-04-25T12:05:46;49.03;;;32.80;;
10248;SDS011;5169;50.560;9.714;2023-04-25T12:08:17;49.20;;;33.43;;
10248;SDS011;5169;50.560;9.714;2023-04-25T12:10:51;44.30;;;31.17;;
10248;SDS011;5169;50.560;9.714;2023-04-25T12:13:23;41.07;;;31.83;;
10248;SDS011;5169;50.560;9.714;2023-04-25T12:15:50;45.17;;;32.00;;
10248;SDS011;5169;50.560;9.714;2023-04-25T12:18:25;43.63;;;33.03;;
10248;SDS011;5169;50.560;9.714;2023-04-25T12:20:53;49.77;;;34.83;;
10248;SDS011;5169;50.560;9.714;2023-04-25T12:23:29;45.90;;;34.13;;
10248;SDS011;5169;50.560;9.714;2023-04-25T12:26:01;45.50;;;35.30;;
10248;SDS011;5169;50.560;9.714;2023-04-25T12:28:27;49.63;;;39.17;;
10248;SDS011;5169;50.560;9.714;2023-04-25T12:31:03;73.07;;;51.30;;
10248;SDS011;5169;50.560;9.714;2023-04-25T12:33:35;70.13;;;53.67;;
10248;SDS011;5169;50.560;9.714;2023-04-25T12:36:03;56.37;;;50.63;;
10248;SDS011;5169;50.560;9.714;2023-04-25T12:38:40;63.67;;;56.57;;
10248;SDS011;5169;50.560;9.714;2023-04-25T12:41:06;72.30;;;55.77;;
10248;SDS011;5169;50.560;9.714;2023-04-25T12:43:40;70.87;;;53.70;;
10248;SDS011;5169;50.560;9.714;2023-04-25T12:46:06;66.83;;;50.67;;
10248;SDS011;5169;50.560;9.714;2023-04-25T12:48:35;63.60;;;46.97;;
10248;SDS011;5169;50.560;9.714;2023-04-25T12:51:01;66.93;;;47.60;;
10248;SDS011;5169;50.560;9.714;2023-04-25T12:53:26;60.93;;;44.40;;
10248;SDS011;5169;50.560;9.714;2023-04-25T12:55:52;59.60;;;42.37;;
10248;SDS011;5169;50.560;9.714;2023-04-25T12:58:18;69.73;;;46.10;;
10248;SDS011;5169;50.560;9.714;2023-04-25T13:00:48;70.33;;;45.53;;
10248;SDS011;5169;50.560;9.714;2023-04-25T13:03:17;66.93;;;43.20;;
10248;SDS011;5169;50.560;9.714;2023-04-25T13:05:42;70.13;;;43.57;;
10248;SDS011;5169;50.560;9.714;2023-04-25T13:08:17;71.67;;;44.10;;
10248;SDS011;5169;50.560;9.714;2023-04-25T13:10:50;59.87;;;39.53;;
10248;SDS011;5169;50.560;9.714;2023-04-25T13:13:16;67.40;;;43.10;;
10248;SDS011;5169;50.560;9.714;2023-04-25T13:15:42;65.37;;;42.63;;
10248;SDS011;5169;50.560;9.714;2023-04-25T13:18:15;72.27;;;42.50;;
10248;SDS011;5169;50.560;9.714;2023-04-25T13:20:41;71.63;;;42.60;;
10248;SDS011;5169;50.560;9.714;2023-04-25T13:23:11;68.57;;;42.87;;
10248;SDS011;5169;50.560;9.714;2023-04-25T13:25:37;75.37;;;45.23;;
10248;SDS011;5169;50.560;9.714;2023-04-25T13:28:02;74.80;;;44.27;;
10248;SDS011;5169;50.560;9.714;2023-04-25T13:30:30;74.50;;;42.73;;
10248;SDS011;5169;50.560;9.714;2023-04-25T13:33:01;68.83;;;43.20;;
10248;SDS011;5169;50.560;9.714;2023-04-25T13:35:31;68.67;;;42.90;;
10248;SDS011;5169;50.560;9.714;2023-04-25T13:38:03;57.10;;;38.43;;
10248;SDS011;5169;50.560;9.714;2023-04-25T13:40:29;70.90;;;43.93;;
10248;SDS011;5169;50.560;9.714;2023-04-25T13:43:01;68.17;;;45.00;;
10248;SDS011;5169;50.560;9.714;2023-04-25T13:45:29;63.57;;;42.90;;
10248;SDS011;5169;50.560;9.714;2023-04-25T13:47:55;55.47;;;39.73;;
10248;SDS011;5169;50.560;9.714;2023-04-25T13:50:25;70.53;;;47.53;;
10248;SDS011;5169;50.560;9.714;2023-04-25T13:52:51;63.03;;;44.50;;
10248;SDS011;5169;50.560;9.714;2023-04-25T13:55:16;73.70;;;49.57;;
10248;SDS011;5169;50.560;9.714;2023-04-25T13:57:47;69.83;;;45.50;;
10248;SDS011;5169;50.560;9.714;2023-04-25T14:00:15;66.77;;;45.60;;
10248;SDS011;5169;50.560;9.714;2023-04-25T14:02:47;70.13;;;45.27;;
10248;SDS011;5169;50.560;9.714;2023-04-25T14:05:13;65.50;;;44.90;;
10248;SDS011;5169;50.560;9.714;2023-04-25T14:07:40;58.73;;;41.57;;
10248;SDS011;5169;50.560;9.714;2023-04-25T14:10:06;66.87;;;45.93;;
10248;SDS011;5169;50.560;9.714;2023-04-25T14:12:35;71.67;;;46.53;;
10248;SDS011;5169;50.560;9.714;2023-04-25T14:15:01;72.37;;;42.43;;
10248;SDS011;5169;50.560;9.714;2023-04-25T14:17:27;73.47;;;43.87;;
10248;SDS011;5169;50.560;9.714;2023-04-25T14:19:53;69.70;;;41.97;;
10248;SDS011;5169;50.560;9.714;2023-04-25T14:22:26;65.50;;;41.33;;
10248;SDS011;5169;50.560;9.714;2023-04-25T14:24:54;62.10;;;39.20;;
10248;SDS011;5169;50.560;9.714;2023-04-25T14:27:20;73.20;;;43.57;;
10248;SDS011;5169;50.560;9.714;2023-04-25T14:29:51;72.10;;;40.37;;
10248;SDS011;5169;50.560;9.714;2023-04-25T14:32:17;68.33;;;38.83;;
10248;SDS011;5169;50.560;9.714;2023-04-25T14:34:43;64.40;;;37.97;;
10248;SDS011;5169;50.560;9.714;2023-04-25T14:37:13;57.60;;;35.77;;
10248;SDS011;5169;50.560;9.714;2023-04-25T14:39:42;67.03;;;38.37;;
10248;SDS011;5169;50.560;9.714;2023-04-25T14:42:15;66.70;;;38.33;;
10248;SDS011;5169;50.560;9.714;2023-04-25T14:44:40;67.00;;;38.17;;
10248;SDS011;5169;50.560;9.714;2023-04-25T14:47:17;60.90;;;36.87;;
10248;SDS011;5169;50.560;9.714;2023-04-25T14:49:48;61.13;;;38.63;;
10248;SDS011;5169;50.560;9.714;2023-04-25T14:52:19;66.13;;;38.30;;